FLUGWETTER MÜNCHEN AIRPORT

[source: ADDS]
METAR
EDDM 080720Z 07001KT 5000 1500NW R26R/0400V0900D PRFG FEW001 BKN270 M05/M05 Q1034 NOSIG =
TAF
TAF AMD EDDM 080659Z 0806/0912 VRB03KT 2500 BCFG NSC BECMG 0807/0809 9999 BECMG 0816/0818 24005KT =
SR / SS: 06:52 / 15:20 UTC (Tag 2016-12-08)

QR-Code dieser Seite

QR-Code dieser Seite